sensor_id;sensor_type;location;lat;lon;timestamp;pressure;altitude;pressure_sealevel;temperature;humidity
46430;BME280;32131;53.454;-6.180;2023-02-22T00:00:57;100836.28;;;8.27;96.33
46430;BME280;32131;53.454;-6.180;2023-02-22T00:03:30;100841.44;;;8.27;96.61
46430;BME280;32131;53.454;-6.180;2023-02-22T00:06:03;100836.28;;;8.27;96.61
46430;BME280;32131;53.454;-6.180;2023-02-22T00:08:33;100849.16;;;8.27;97.07
46430;BME280;32131;53.454;-6.180;2023-02-22T00:11:03;100842.19;;;8.24;97.34
46430;BME280;32131;53.454;-6.180;2023-02-22T00:13:35;100846.47;;;8.24;97.53
46430;BME280;32131;53.454;-6.180;2023-02-22T00:16:05;100853.31;;;8.23;97.98
46430;BME280;32131;53.454;-6.180;2023-02-22T00:18:33;100842.06;;;8.19;98.12
46430;BME280;32131;53.454;-6.180;2023-02-22T00:21:04;100840.38;;;8.20;98.41
46430;BME280;32131;53.454;-6.180;2023-02-22T00:23:38;100867.63;;;8.13;98.58
46430;BME280;32131;53.454;-6.180;2023-02-22T00:26:08;100868.47;;;7.82;98.25
46430;BME280;32131;53.454;-6.180;2023-02-22T00:28:36;100882.13;;;7.50;97.69
46430;BME280;32131;53.454;-6.180;2023-02-22T00:31:05;100880.59;;;7.28;98.47
46430;BME280;32131;53.454;-6.180;2023-02-22T00:33:33;100891.09;;;7.08;98.89
46430;BME280;32131;53.454;-6.180;2023-02-22T00:36:04;100888.75;;;6.89;98.88
46430;BME280;32131;53.454;-6.180;2023-02-22T00:38:32;100885.00;;;6.79;98.93
46430;BME280;32131;53.454;-6.180;2023-02-22T00:41:01;100895.09;;;6.73;99.09
46430;BME280;32131;53.454;-6.180;2023-02-22T00:43:31;100913.75;;;6.69;99.12
46430;BME280;32131;53.454;-6.180;2023-02-22T00:46:00;100897.34;;;6.64;98.88
46430;BME280;32131;53.454;-6.180;2023-02-22T00:48:28;100901.53;;;6.61;99.30
46430;BME280;32131;53.454;-6.180;2023-02-22T00:50:57;100909.97;;;6.57;99.18
46430;BME280;32131;53.454;-6.180;2023-02-22T00:53:26;100900.34;;;6.52;99.33
46430;BME280;32131;53.454;-6.180;2023-02-22T00:55:55;100911.41;;;6.49;99.31
46430;BME280;32131;53.454;-6.180;2023-02-22T00:58:23;100924.09;;;6.46;99.25
46430;BME280;32131;53.454;-6.180;2023-02-22T01:00:52;100919.63;;;6.40;98.83
46430;BME280;32131;53.454;-6.180;2023-02-22T01:03:21;100922.03;;;6.36;98.77
46430;BME280;32131;53.454;-6.180;2023-02-22T01:05:52;100926.34;;;6.37;98.68
46430;BME280;32131;53.454;-6.180;2023-02-22T01:08:20;100925.41;;;6.35;98.86
46430;BME280;32131;53.454;-6.180;2023-02-22T01:10:52;100940.78;;;6.35;98.99
46430;BME280;32131;53.454;-6.180;2023-02-22T01:13:20;100942.38;;;6.31;98.67
46430;BME280;32131;53.454;-6.180;2023-02-22T01:15:49;100946.53;;;6.27;98.51
46430;BME280;32131;53.454;-6.180;2023-02-22T01:18:17;100952.25;;;6.20;98.57
46430;BME280;32131;53.454;-6.180;2023-02-22T01:20:47;100952.84;;;6.13;98.48
46430;BME280;32131;53.454;-6.180;2023-02-22T01:23:16;100953.44;;;6.06;98.35
46430;BME280;32131;53.454;-6.180;2023-02-22T01:25:45;100962.63;;;6.01;98.96
46430;BME280;32131;53.454;-6.180;2023-02-22T01:28:14;100968.44;;;5.96;99.44
46430;BME280;32131;53.454;-6.180;2023-02-22T01:30:43;100967.25;;;5.88;99.86
46430;BME280;32131;53.454;-6.180;2023-02-22T01:33:11;100967.13;;;5.85;99.59
46430;BME280;32131;53.454;-6.180;2023-02-22T01:35:42;100961.03;;;5.81;99.72
46430;BME280;32131;53.454;-6.180;2023-02-22T01:38:12;100960.84;;;5.77;100.00
46430;BME280;32131;53.454;-6.180;2023-02-22T01:40:42;100965.06;;;5.75;100.00
46430;BME280;32131;53.454;-6.180;2023-02-22T01:43:19;100977.09;;;5.77;100.00
46430;BME280;32131;53.454;-6.180;2023-02-22T01:45:52;100984.03;;;5.80;100.00
46430;BME280;32131;53.454;-6.180;2023-02-22T01:48:26;100981.34;;;5.77;100.00
46430;BME280;32131;53.454;-6.180;2023-02-22T01:50:59;100979.59;;;5.76;100.00
46430;BME280;32131;53.454;-6.180;2023-02-22T01:53:32;100985.56;;;5.75;100.00
46430;BME280;32131;53.454;-6.180;2023-02-22T01:56:03;100989.75;;;5.73;100.00
46430;BME280;32131;53.454;-6.180;2023-02-22T01:58:34;100983.63;;;5.69;100.00
46430;BME280;32131;53.454;-6.180;2023-02-22T02:01:04;100976.81;;;5.70;100.00
46430;BME280;32131;53.454;-6.180;2023-02-22T02:03:34;100983.69;;;5.71;100.00
46430;BME280;32131;53.454;-6.180;2023-02-22T02:06:08;100987.03;;;5.70;100.00
46430;BME280;32131;53.454;-6.180;2023-02-22T02:08:44;100991.13;;;5.64;100.00
46430;BME280;32131;53.454;-6.180;2023-02-22T02:11:19;100988.56;;;5.64;100.00
46430;BME280;32131;53.454;-6.180;2023-02-22T02:13:50;100983.44;;;5.64;100.00
46430;BME280;32131;53.454;-6.180;2023-02-22T02:16:21;100980.94;;;5.66;100.00
46430;BME280;32131;53.454;-6.180;2023-02-22T02:18:51;100991.94;;;5.63;100.00
46430;BME280;32131;53.454;-6.180;2023-02-22T02:21:38;100992.69;;;5.61;100.00
46430;BME280;32131;53.454;-6.180;2023-02-22T02:24:31;100993.41;;;5.58;100.00
46430;BME280;32131;53.454;-6.180;2023-02-22T02:27:15;101002.06;;;5.60;100.00
46430;BME280;32131;53.454;-6.180;2023-02-22T02:30:18;100998.53;;;5.58;100.00
46430;BME280;32131;53.454;-6.180;2023-02-22T02:32:54;100989.13;;;5.57;100.00
46430;BME280;32131;53.454;-6.180;2023-02-22T02:35:34;100996.75;;;5.56;100.00
46430;BME280;32131;53.454;-6.180;2023-02-22T02:38:11;100993.31;;;5.55;100.00
46430;BME280;32131;53.454;-6.180;2023-02-22T02:40:44;100997.44;;;5.51;100.00
46430;BME280;32131;53.454;-6.180;2023-02-22T02:43:20;101007.56;;;5.48;100.00
46430;BME280;32131;53.454;-6.180;2023-02-22T02:46:00;101004.00;;;5.45;100.00
46430;BME280;32131;53.454;-6.180;2023-02-22T02:48:38;101000.59;;;5.44;100.00
46430;BME280;32131;53.454;-6.180;2023-02-22T02:51:10;100999.50;;;5.39;100.00
46430;BME280;32131;53.454;-6.180;2023-02-22T02:53:44;101009.69;;;5.38;100.00
46430;BME280;32131;53.454;-6.180;2023-02-22T02:56:13;101008.13;;;5.41;100.00
46430;BME280;32131;53.454;-6.180;2023-02-22T02:58:45;101007.25;;;5.41;100.00
46430;BME280;32131;53.454;-6.180;2023-02-22T03:01:21;101007.94;;;5.37;100.00
46430;BME280;32131;53.454;-6.180;2023-02-22T03:07:07;101007.69;;;5.30;100.00
46430;BME280;32131;53.454;-6.180;2023-02-22T03:09:45;101011.72;;;5.25;100.00
46430;BME280;32131;53.454;-6.180;2023-02-22T03:12:34;101010.72;;;5.22;100.00
46430;BME280;32131;53.454;-6.180;2023-02-22T03:15:13;101020.16;;;5.23;100.00
46430;BME280;32131;53.454;-6.180;2023-02-22T03:17:52;101016.84;;;5.25;100.00
46430;BME280;32131;53.454;-6.180;2023-02-22T03:20:27;101018.75;;;5.29;100.00
46430;BME280;32131;53.454;-6.180;2023-02-22T03:23:05;101016.03;;;5.26;100.00
46430;BME280;32131;53.454;-6.180;2023-02-22T03:25:37;101013.09;;;5.17;100.00
46430;BME280;32131;53.454;-6.180;2023-02-22T03:28:09;101023.91;;;5.10;100.00
46430;BME280;32131;53.454;-6.180;2023-02-22T03:30:43;101016.03;;;5.05;100.00
46430;BME280;32131;53.454;-6.180;2023-02-22T03:33:16;101023.78;;;5.07;100.00
46430;BME280;32131;53.454;-6.180;2023-02-22T03:35:49;101011.22;;;5.13;100.00
46430;BME280;32131;53.454;-6.180;2023-02-22T03:38:26;101020.78;;;5.17;100.00
46430;BME280;32131;53.454;-6.180;2023-02-22T03:40:59;101024.09;;;5.14;100.00
46430;BME280;32131;53.454;-6.180;2023-02-22T03:43:31;101020.28;;;5.04;100.00
46430;BME280;32131;53.454;-6.180;2023-02-22T03:46:05;101023.44;;;4.99;100.00
46430;BME280;32131;53.454;-6.180;2023-02-22T03:48:40;101026.16;;;5.02;100.00
46430;BME280;32131;53.454;-6.180;2023-02-22T03:51:11;101030.38;;;5.01;100.00
46430;BME280;32131;53.454;-6.180;2023-02-22T03:53:44;101023.94;;;4.90;100.00
46430;BME280;32131;53.454;-6.180;2023-02-22T03:56:17;101038.00;;;4.80;100.00
46430;BME280;32131;53.454;-6.180;2023-02-22T03:58:51;101037.78;;;4.76;100.00
46430;BME280;32131;53.454;-6.180;2023-02-22T04:01:19;101040.28;;;4.74;100.00
46430;BME280;32131;53.454;-6.180;2023-02-22T04:03:49;101034.31;;;4.74;100.00
46430;BME280;32131;53.454;-6.180;2023-02-22T04:06:17;101053.13;;;4.76;100.00
46430;BME280;32131;53.454;-6.180;2023-02-22T04:08:47;101040.44;;;4.77;100.00
46430;BME280;32131;53.454;-6.180;2023-02-22T04:11:15;101051.53;;;4.78;100.00
46430;BME280;32131;53.454;-6.180;2023-02-22T04:13:44;101053.34;;;4.80;100.00
46430;BME280;32131;53.454;-6.180;2023-02-22T04:16:12;101062.19;;;4.87;100.00
46430;BME280;32131;53.454;-6.180;2023-02-22T04:18:40;101056.72;;;4.99;100.00
46430;BME280;32131;53.454;-6.180;2023-02-22T04:21:09;101057.88;;;5.06;100.00
46430;BME280;32131;53.454;-6.180;2023-02-22T04:23:37;101057.06;;;5.07;100.00
46430;BME280;32131;53.454;-6.180;2023-02-22T04:26:07;101052.59;;;5.02;100.00
46430;BME280;32131;53.454;-6.180;2023-02-22T04:28:35;101071.22;;;4.98;100.00
46430;BME280;32131;53.454;-6.180;2023-02-22T04:31:03;101060.97;;;4.98;100.00
46430;BME280;32131;53.454;-6.180;2023-02-22T04:33:32;101063.66;;;5.01;100.00
46430;BME280;32131;53.454;-6.180;2023-02-22T04:36:00;101072.47;;;5.08;100.00
46430;BME280;32131;53.454;-6.180;2023-02-22T04:38:28;101057.38;;;5.14;100.00
46430;BME280;32131;53.454;-6.180;2023-02-22T04:40:57;101064.38;;;5.18;100.00
46430;BME280;32131;53.454;-6.180;2023-02-22T04:43:26;101056.63;;;5.17;100.00
46430;BME280;32131;53.454;-6.180;2023-02-22T04:45:55;101070.13;;;5.13;100.00
46430;BME280;32131;53.454;-6.180;2023-02-22T04:48:23;101075.84;;;5.07;100.00
46430;BME280;32131;53.454;-6.180;2023-02-22T04:50:51;101078.47;;;4.89;100.00
46430;BME280;32131;53.454;-6.180;2023-02-22T04:53:21;101074.50;;;4.76;100.00
46430;BME280;32131;53.454;-6.180;2023-02-22T04:55:49;101077.59;;;4.69;100.00
46430;BME280;32131;53.454;-6.180;2023-02-22T04:58:18;101082.72;;;4.69;100.00
46430;BME280;32131;53.454;-6.180;2023-02-22T05:00:48;101092.31;;;4.75;100.00
46430;BME280;32131;53.454;-6.180;2023-02-22T05:03:16;101095.09;;;4.79;100.00
46430;BME280;32131;53.454;-6.180;2023-02-22T05:05:44;101087.50;;;4.81;100.00
46430;BME280;32131;53.454;-6.180;2023-02-22T05:08:13;101096.72;;;4.77;100.00
46430;BME280;32131;53.454;-6.180;2023-02-22T05:10:41;101098.53;;;4.80;100.00
46430;BME280;32131;53.454;-6.180;2023-02-22T05:13:10;101103.78;;;4.83;100.00
46430;BME280;32131;53.454;-6.180;2023-02-22T05:15:38;101103.78;;;4.83;100.00
46430;BME280;32131;53.454;-6.180;2023-02-22T05:18:08;101115.72;;;4.82;100.00
46430;BME280;32131;53.454;-6.180;2023-02-22T05:20:36;101111.44;;;4.83;100.00
46430;BME280;32131;53.454;-6.180;2023-02-22T05:23:05;101114.00;;;4.83;99.76
46430;BME280;32131;53.454;-6.180;2023-02-22T05:25:34;101117.41;;;4.82;99.09
46430;BME280;32131;53.454;-6.180;2023-02-22T05:28:06;101123.91;;;4.75;98.35
46430;BME280;32131;53.454;-6.180;2023-02-22T05:30:35;101133.94;;;4.70;97.42
46430;BME280;32131;53.454;-6.180;2023-02-22T05:33:05;101128.63;;;4.66;97.02
46430;BME280;32131;53.454;-6.180;2023-02-22T05:35:35;101127.59;;;4.62;96.25
46430;BME280;32131;53.454;-6.180;2023-02-22T05:38:05;101137.63;;;4.57;95.78
46430;BME280;32131;53.454;-6.180;2023-02-22T05:40:33;101139.91;;;4.51;94.60
46430;BME280;32131;53.454;-6.180;2023-02-22T05:43:04;101149.69;;;4.42;94.28
46430;BME280;32131;53.454;-6.180;2023-02-22T05:45:32;101151.34;;;4.41;94.26
46430;BME280;32131;53.454;-6.180;2023-02-22T05:48:02;101154.88;;;4.44;93.91
46430;BME280;32131;53.454;-6.180;2023-02-22T05:50:30;101160.66;;;4.39;93.63
46430;BME280;32131;53.454;-6.180;2023-02-22T05:53:01;101161.38;;;4.37;93.49
46430;BME280;32131;53.454;-6.180;2023-02-22T05:55:31;101166.41;;;4.35;93.60
46430;BME280;32131;53.454;-6.180;2023-02-22T05:58:00;101168.97;;;4.35;93.88
46430;BME280;32131;53.454;-6.180;2023-02-22T06:00:32;101174.97;;;4.36;94.01
46430;BME280;32131;53.454;-6.180;2023-02-22T06:03:02;101181.75;;;4.35;93.86
46430;BME280;32131;53.454;-6.180;2023-02-22T06:05:32;101172.50;;;4.37;93.16
46430;BME280;32131;53.454;-6.180;2023-02-22T06:08:06;101180.97;;;4.36;92.68
46430;BME280;32131;53.454;-6.180;2023-02-22T06:10:35;101180.09;;;4.36;92.72
46430;BME280;32131;53.454;-6.180;2023-02-22T06:13:04;101189.38;;;4.34;92.47
46430;BME280;32131;53.454;-6.180;2023-02-22T06:15:33;101183.75;;;4.23;92.40
46430;BME280;32131;53.454;-6.180;2023-02-22T06:18:01;101183.28;;;4.14;92.88
46430;BME280;32131;53.454;-6.180;2023-02-22T06:20:30;101191.28;;;4.03;92.79
46430;BME280;32131;53.454;-6.180;2023-02-22T06:22:59;101193.56;;;3.97;93.10
46430;BME280;32131;53.454;-6.180;2023-02-22T06:25:30;101199.97;;;3.89;93.71
46430;BME280;32131;53.454;-6.180;2023-02-22T06:27:59;101193.66;;;3.82;93.90
46430;BME280;32131;53.454;-6.180;2023-02-22T06:30:29;101198.53;;;3.77;94.17
46430;BME280;32131;53.454;-6.180;2023-02-22T06:32:59;101205.25;;;3.75;94.61
46430;BME280;32131;53.454;-6.180;2023-02-22T06:35:28;101204.31;;;3.73;94.68
46430;BME280;32131;53.454;-6.180;2023-02-22T06:37:56;101197.44;;;3.72;94.94
46430;BME280;32131;53.454;-6.180;2023-02-22T06:40:24;101205.09;;;3.72;95.08
46430;BME280;32131;53.454;-6.180;2023-02-22T06:42:57;101212.78;;;3.72;95.39
46430;BME280;32131;53.454;-6.180;2023-02-22T06:45:25;101212.84;;;3.74;95.32
46430;BME280;32131;53.454;-6.180;2023-02-22T06:47:54;101212.09;;;3.76;95.51
46430;BME280;32131;53.454;-6.180;2023-02-22T06:50:25;101212.28;;;3.80;95.51
46430;BME280;32131;53.454;-6.180;2023-02-22T06:52:55;101216.59;;;3.81;95.54
46430;BME280;32131;53.454;-6.180;2023-02-22T06:55:24;101217.53;;;3.83;95.64
46430;BME280;32131;53.454;-6.180;2023-02-22T06:57:53;101225.84;;;3.78;95.79
46430;BME280;32131;53.454;-6.180;2023-02-22T07:00:26;101217.38;;;3.80;95.81
46430;BME280;32131;53.454;-6.180;2023-02-22T07:02:55;101229.38;;;3.81;95.82
46430;BME280;32131;53.454;-6.180;2023-02-22T07:05:25;101223.47;;;3.82;95.83
46430;BME280;32131;53.454;-6.180;2023-02-22T07:08:00;101223.59;;;3.85;95.66
46430;BME280;32131;53.454;-6.180;2023-02-22T07:10:32;101236.53;;;3.88;95.68
46430;BME280;32131;53.454;-6.180;2023-02-22T07:13:02;101238.28;;;3.89;95.89
46430;BME280;32131;53.454;-6.180;2023-02-22T07:15:34;101224.72;;;3.90;95.87
46430;BME280;32131;53.454;-6.180;2023-02-22T07:18:03;101235.81;;;3.90;96.22
46430;BME280;32131;53.454;-6.180;2023-02-22T07:20:34;101234.78;;;3.87;96.66
46430;BME280;32131;53.454;-6.180;2023-02-22T07:23:02;101229.59;;;3.85;96.91
46430;BME280;32131;53.454;-6.180;2023-02-22T07:25:31;101231.19;;;3.83;97.45
46430;BME280;32131;53.454;-6.180;2023-02-22T07:28:00;101228.63;;;3.83;97.52
46430;BME280;32131;53.454;-6.180;2023-02-22T07:30:30;101233.69;;;3.82;97.70
46430;BME280;32131;53.454;-6.180;2023-02-22T07:33:03;101234.47;;;3.81;97.90
46430;BME280;32131;53.454;-6.180;2023-02-22T07:35:35;101244.75;;;3.82;98.00
46430;BME280;32131;53.454;-6.180;2023-02-22T07:38:05;101249.94;;;3.84;97.94
46430;BME280;32131;53.454;-6.180;2023-02-22T07:40:34;101256.97;;;3.88;97.75
46430;BME280;32131;53.454;-6.180;2023-02-22T07:43:14;101263.03;;;3.90;97.68
46430;BME280;32131;53.454;-6.180;2023-02-22T07:45:44;101271.00;;;3.96;97.44
46430;BME280;32131;53.454;-6.180;2023-02-22T07:48:15;101273.94;;;4.04;96.87
46430;BME280;32131;53.454;-6.180;2023-02-22T07:50:44;101280.09;;;4.07;96.48
46430;BME280;32131;53.454;-6.180;2023-02-22T07:53:15;101285.34;;;4.11;95.75
46430;BME280;32131;53.454;-6.180;2023-02-22T07:55:44;101280.97;;;4.08;95.52
46430;BME280;32131;53.454;-6.180;2023-02-22T07:58:14;101293.69;;;4.06;95.21
46430;BME280;32131;53.454;-6.180;2023-02-22T08:00:43;101297.03;;;4.05;95.44
46430;BME280;32131;53.454;-6.180;2023-02-22T08:03:18;101296.88;;;4.02;95.22
46430;BME280;32131;53.454;-6.180;2023-02-22T08:05:49;101291.75;;;4.02;94.92
46430;BME280;32131;53.454;-6.180;2023-02-22T08:08:18;101297.78;;;4.03;94.75
46430;BME280;32131;53.454;-6.180;2023-02-22T08:10:48;101300.31;;;4.03;94.81
46430;BME280;32131;53.454;-6.180;2023-02-22T08:13:18;101306.47;;;4.06;94.68
46430;BME280;32131;53.454;-6.180;2023-02-22T08:15:50;101309.88;;;4.07;94.41
46430;BME280;32131;53.454;-6.180;2023-02-22T08:18:23;101303.41;;;4.14;94.11
46430;BME280;32131;53.454;-6.180;2023-02-22T08:20:52;101311.22;;;4.17;93.89
46430;BME280;32131;53.454;-6.180;2023-02-22T08:23:23;101320.75;;;4.19;93.50
46430;BME280;32131;53.454;-6.180;2023-02-22T08:25:53;101321.63;;;4.20;93.33
46430;BME280;32131;53.454;-6.180;2023-02-22T08:28:23;101325.28;;;4.25;93.22
46430;BME280;32131;53.454;-6.180;2023-02-22T08:30:52;101328.56;;;4.22;92.83
46430;BME280;32131;53.454;-6.180;2023-02-22T08:33:21;101327.75;;;4.23;92.85
46430;BME280;32131;53.454;-6.180;2023-02-22T08:35:51;101322.66;;;4.23;92.75
46430;BME280;32131;53.454;-6.180;2023-02-22T08:38:21;101326.31;;;4.29;92.76
46430;BME280;32131;53.454;-6.180;2023-02-22T08:40:50;101322.16;;;4.31;92.16
46430;BME280;32131;53.454;-6.180;2023-02-22T08:43:21;101320.50;;;4.31;91.36
46430;BME280;32131;53.454;-6.180;2023-02-22T08:45:50;101329.09;;;4.33;91.19
46430;BME280;32131;53.454;-6.180;2023-02-22T08:48:24;101346.19;;;4.34;90.85
46430;BME280;32131;53.454;-6.180;2023-02-22T08:50:52;101336.75;;;4.33;90.58
46430;BME280;32131;53.454;-6.180;2023-02-22T08:53:21;101331.41;;;4.29;90.59
46430;BME280;32131;53.454;-6.180;2023-02-22T08:55:49;101329.59;;;4.26;90.27
46430;BME280;32131;53.454;-6.180;2023-02-22T08:58:19;101335.34;;;4.22;90.20
46430;BME280;32131;53.454;-6.180;2023-02-22T09:00:47;101335.34;;;4.22;90.23
46430;BME280;32131;53.454;-6.180;2023-02-22T09:03:16;101342.22;;;4.23;89.86
46430;BME280;32131;53.454;-6.180;2023-02-22T09:05:46;101333.59;;;4.21;89.77
46430;BME280;32131;53.454;-6.180;2023-02-22T09:08:15;101338.94;;;4.25;89.60
46430;BME280;32131;53.454;-6.180;2023-02-22T09:10:45;101330.72;;;4.31;89.17
46430;BME280;32131;53.454;-6.180;2023-02-22T09:13:13;101342.84;;;4.35;89.29
46430;BME280;32131;53.454;-6.180;2023-02-22T09:15:43;101339.41;;;4.35;89.18
46430;BME280;32131;53.454;-6.180;2023-02-22T09:18:12;101336.28;;;4.40;89.07
46430;BME280;32131;53.454;-6.180;2023-02-22T09:20:43;101345.06;;;4.46;88.88
46430;BME280;32131;53.454;-6.180;2023-02-22T09:23:13;101347.13;;;4.53;88.78
46430;BME280;32131;53.454;-6.180;2023-02-22T09:25:41;101349.34;;;4.63;88.13
46430;BME280;32131;53.454;-6.180;2023-02-22T09:28:10;101346.13;;;4.67;87.57
46430;BME280;32131;53.454;-6.180;2023-02-22T09:30:38;101360.91;;;4.73;87.30
46430;BME280;32131;53.454;-6.180;2023-02-22T09:33:08;101351.13;;;4.82;86.89
46430;BME280;32131;53.454;-6.180;2023-02-22T10:26:21;101404.88;;;6.10;75.28
46430;BME280;32131;53.454;-6.180;2023-02-22T10:29:09;101406.09;;;6.19;74.49
46430;BME280;32131;53.454;-6.180;2023-02-22T10:32:19;101411.19;;;6.38;74.11
46430;BME280;32131;53.454;-6.180;2023-02-22T10:35:22;101416.63;;;6.66;73.87
46430;BME280;32131;53.454;-6.180;2023-02-22T10:38:52;101410.53;;;6.83;72.98
46430;BME280;32131;53.454;-6.180;2023-02-22T10:41:39;101429.03;;;6.97;72.29
46430;BME280;32131;53.454;-6.180;2023-02-22T10:44:40;101427.38;;;6.98;71.65
46430;BME280;32131;53.454;-6.180;2023-02-22T10:47:25;101409.69;;;7.05;71.12
46430;BME280;32131;53.454;-6.180;2023-02-22T10:50:11;101413.38;;;7.12;70.81
46430;BME280;32131;53.454;-6.180;2023-02-22T10:52:45;101414.00;;;7.28;70.30
46430;BME280;32131;53.454;-6.180;2023-02-22T10:55:17;101415.53;;;7.45;70.16
46430;BME280;32131;53.454;-6.180;2023-02-22T10:57:50;101417.88;;;7.62;69.69
46430;BME280;32131;53.454;-6.180;2023-02-22T11:00:45;101417.44;;;7.72;68.46
46430;BME280;32131;53.454;-6.180;2023-02-22T11:03:21;101421.16;;;7.80;67.79
46430;BME280;32131;53.454;-6.180;2023-02-22T11:06:17;101422.97;;;7.83;67.19
46430;BME280;32131;53.454;-6.180;2023-02-22T11:09:20;101427.41;;;7.87;66.87
46430;BME280;32131;53.454;-6.180;2023-02-22T11:12:06;101429.34;;;7.93;66.83
46430;BME280;32131;53.454;-6.180;2023-02-22T11:14:36;101424.94;;;7.90;66.82
46430;BME280;32131;53.454;-6.180;2023-02-22T11:17:06;101429.56;;;7.99;66.95
46430;BME280;32131;53.454;-6.180;2023-02-22T11:19:36;101428.75;;;8.00;66.29
46430;BME280;32131;53.454;-6.180;2023-02-22T11:22:10;101428.94;;;8.05;65.64
46430;BME280;32131;53.454;-6.180;2023-02-22T11:25:03;101430.50;;;8.01;64.55
46430;BME280;32131;53.454;-6.180;2023-02-22T11:27:45;101453.06;;;8.08;65.11
46430;BME280;32131;53.454;-6.180;2023-02-22T11:30:33;101430.81;;;8.10;64.57
46430;BME280;32131;53.454;-6.180;2023-02-22T11:33:31;101434.25;;;8.09;64.36
46430;BME280;32131;53.454;-6.180;2023-02-22T11:36:37;101444.75;;;8.15;63.96
46430;BME280;32131;53.454;-6.180;2023-02-22T11:53:03;101466.63;;;8.27;63.42
46430;BME280;32131;53.454;-6.180;2023-02-22T11:55:44;101464.25;;;8.33;63.31
46430;BME280;32131;53.454;-6.180;2023-02-22T11:58:26;101468.75;;;8.39;62.61
46430;BME280;32131;53.454;-6.180;2023-02-22T12:01:03;101464.84;;;8.48;62.48
46430;BME280;32131;53.454;-6.180;2023-02-22T12:04:19;101462.59;;;8.58;62.42
46430;BME280;32131;53.454;-6.180;2023-02-22T12:06:59;101466.34;;;8.68;61.91
46430;BME280;32131;53.454;-6.180;2023-02-22T12:09:36;101473.13;;;8.65;61.85
46430;BME280;32131;53.454;-6.180;2023-02-22T12:12:15;101476.81;;;8.72;62.19
46430;BME280;32131;53.454;-6.180;2023-02-22T12:14:53;101476.34;;;8.84;62.34
46430;BME280;32131;53.454;-6.180;2023-02-22T12:17:34;101483.63;;;8.96;61.65
46430;BME280;32131;53.454;-6.180;2023-02-22T12:20:22;101489.41;;;9.15;61.29
46430;BME280;32131;53.454;-6.180;2023-02-22T12:23:02;101481.97;;;9.24;60.64
46430;BME280;32131;53.454;-6.180;2023-02-22T12:25:38;101492.66;;;9.36;60.70
46430;BME280;32131;53.454;-6.180;2023-02-22T12:28:15;101505.84;;;9.46;60.54
46430;BME280;32131;53.454;-6.180;2023-02-22T12:30:53;101491.66;;;9.31;59.59
46430;BME280;32131;53.454;-6.180;2023-02-22T12:33:27;101498.38;;;9.26;59.89
46430;BME280;32131;53.454;-6.180;2023-02-22T12:35:58;101495.63;;;9.21;59.78
46430;BME280;32131;53.454;-6.180;2023-02-22T12:38:30;101505.38;;;9.30;60.40
46430;BME280;32131;53.454;-6.180;2023-02-22T12:41:10;101499.22;;;9.26;60.50
46430;BME280;32131;53.454;-6.180;2023-02-22T12:43:47;101507.41;;;9.13;60.22
46430;BME280;32131;53.454;-6.180;2023-02-22T12:46:20;101495.28;;;9.10;60.70
46430;BME280;32131;53.454;-6.180;2023-02-22T12:48:53;101501.56;;;9.19;60.62
46430;BME280;32131;53.454;-6.180;2023-02-22T12:51:28;101512.69;;;9.18;60.25
46430;BME280;32131;53.454;-6.180;2023-02-22T12:54:05;101514.00;;;9.05;60.67
46430;BME280;32131;53.454;-6.180;2023-02-22T12:56:46;101509.50;;;8.99;61.26
46430;BME280;32131;53.454;-6.180;2023-02-22T12:59:21;101509.53;;;9.01;61.35
46430;BME280;32131;53.454;-6.180;2023-02-22T13:01:57;101505.53;;;9.09;61.60
46430;BME280;32131;53.454;-6.180;2023-02-22T13:04:28;101504.75;;;9.11;61.47
46430;BME280;32131;53.454;-6.180;2023-02-22T13:07:10;101508.06;;;9.07;61.35
46430;BME280;32131;53.454;-6.180;2023-02-22T13:10:18;101512.06;;;8.99;61.02
46430;BME280;32131;53.454;-6.180;2023-02-22T13:12:59;101511.53;;;8.84;61.57
46430;BME280;32131;53.454;-6.180;2023-02-22T13:15:36;101502.59;;;8.74;62.13
46430;BME280;32131;53.454;-6.180;2023-02-22T13:18:15;101506.59;;;8.65;62.35
46430;BME280;32131;53.454;-6.180;2023-02-22T13:20:51;101516.16;;;8.68;62.60
46430;BME280;32131;53.454;-6.180;2023-02-22T13:23:36;101512.66;;;8.66;62.34
46430;BME280;32131;53.454;-6.180;2023-02-22T13:26:12;101513.13;;;8.56;61.99
46430;BME280;32131;53.454;-6.180;2023-02-22T13:28:47;101515.75;;;8.57;62.51
46430;BME280;32131;53.454;-6.180;2023-02-22T13:34:32;101537.66;;;8.70;62.04
46430;BME280;32131;53.454;-6.180;2023-02-22T13:37:18;101539.25;;;8.67;62.12
46430;BME280;32131;53.454;-6.180;2023-02-22T13:40:14;101533.50;;;8.74;62.11
46430;BME280;32131;53.454;-6.180;2023-02-22T13:43:03;101537.13;;;8.79;62.08
46430;BME280;32131;53.454;-6.180;2023-02-22T13:49:03;101554.09;;;8.98;62.02
46430;BME280;32131;53.454;-6.180;2023-02-22T13:51:51;101535.13;;;8.96;61.84
46430;BME280;32131;53.454;-6.180;2023-02-22T13:54:32;101542.03;;;8.97;62.01
46430;BME280;32131;53.454;-6.180;2023-02-22T13:57:16;101540.38;;;8.98;62.04
46430;BME280;32131;53.454;-6.180;2023-02-22T14:03:00;101549.91;;;9.26;62.04
46430;BME280;32131;53.454;-6.180;2023-02-22T14:05:50;101549.84;;;9.24;62.02
46430;BME280;32131;53.454;-6.180;2023-02-22T14:08:40;101559.13;;;9.19;62.20
46430;BME280;32131;53.454;-6.180;2023-02-22T14:14:20;101549.69;;;9.20;61.55
46430;BME280;32131;53.454;-6.180;2023-02-22T14:17:20;101555.88;;;9.25;61.37
46430;BME280;32131;53.454;-6.180;2023-02-22T14:20:20;101549.19;;;9.30;61.03
46430;BME280;32131;53.454;-6.180;2023-02-22T14:23:25;101564.94;;;9.39;60.32
46430;BME280;32131;53.454;-6.180;2023-02-22T14:25:56;101559.00;;;9.42;59.85
46430;BME280;32131;53.454;-6.180;2023-02-22T14:28:45;101561.59;;;9.42;59.56
46430;BME280;32131;53.454;-6.180;2023-02-22T14:31:18;101563.38;;;9.44;59.42
46430;BME280;32131;53.454;-6.180;2023-02-22T14:34:11;101568.84;;;9.54;59.62
46430;BME280;32131;53.454;-6.180;2023-02-22T14:36:45;101567.22;;;9.56;59.85
46430;BME280;32131;53.454;-6.180;2023-02-22T14:39:24;101566.28;;;9.54;59.95
46430;BME280;32131;53.454;-6.180;2023-02-22T14:42:01;101569.09;;;9.34;60.10
46430;BME280;32131;53.454;-6.180;2023-02-22T14:44:35;101574.13;;;9.31;60.31